createdAt,value
2017-09-25T00:00:17.646Z,10.70
2017-09-25T00:02:45.150Z,10.60
2017-09-25T00:05:12.692Z,10.50
2017-09-25T00:07:40.953Z,10.50
2017-09-25T00:10:09.224Z,10.60
2017-09-25T00:12:36.785Z,10.60
2017-09-25T00:15:04.281Z,10.70
2017-09-25T00:17:31.817Z,10.70
2017-09-25T00:19:59.332Z,10.70
2017-09-25T00:22:26.862Z,10.70
2017-09-25T00:24:54.364Z,10.60
2017-09-25T00:27:21.917Z,10.50
2017-09-25T00:29:49.430Z,10.40
2017-09-25T00:32:17.113Z,10.30
2017-09-25T00:34:45.385Z,10.20
2017-09-25T00:37:12.882Z,10.10
2017-09-25T00:39:40.415Z,10.10
2017-09-25T00:42:07.922Z,10.00
2017-09-25T00:44:35.468Z,10.00
2017-09-25T00:47:02.967Z,10.00
2017-09-25T00:49:30.514Z,10.00
2017-09-25T00:51:58.089Z,10.10
2017-09-25T00:54:25.651Z,10.20
2017-09-25T00:56:53.159Z,10.30
2017-09-25T00:59:28.221Z,10.40
2017-09-25T01:02:07.684Z,10.40
2017-09-25T01:04:47.040Z,10.50
2017-09-25T01:07:14.542Z,10.50
2017-09-25T01:09:42.069Z,10.50
2017-09-25T01:12:09.569Z,10.40
2017-09-25T01:14:37.105Z,10.40
2017-09-25T01:17:04.655Z,10.40
2017-09-25T01:19:33.065Z,10.30
2017-09-25T01:22:00.570Z,10.30
2017-09-25T01:24:28.086Z,10.30
2017-09-25T01:26:55.618Z,10.30
2017-09-25T01:29:25.809Z,10.20
2017-09-25T01:31:53.349Z,10.20
2017-09-25T01:34:20.856Z,10.10
2017-09-25T01:36:48.403Z,10.10
2017-09-25T01:39:15.905Z,10.00
2017-09-25T01:41:43.433Z,10.00
2017-09-25T01:44:10.930Z,9.90
2017-09-25T01:46:38.565Z,9.90
2017-09-25T01:49:06.821Z,9.70
2017-09-25T01:51:35.081Z,9.70
2017-09-25T01:54:03.373Z,9.70
2017-09-25T01:56:30.862Z,9.70
2017-09-25T01:58:58.396Z,9.70
2017-09-25T02:01:25.895Z,9.70
2017-09-25T02:03:53.417Z,9.70
2017-09-25T02:06:21.673Z,9.60
2017-09-25T02:08:49.970Z,9.60
2017-09-25T02:11:17.465Z,9.60
2017-09-25T02:13:45.094Z,9.50
2017-09-25T02:16:12.590Z,9.50
2017-09-25T02:18:40.115Z,9.50
2017-09-25T02:21:08.405Z,9.50
2017-09-25T02:23:35.905Z,9.50
2017-09-25T02:26:03.428Z,9.50
2017-09-25T02:28:30.919Z,9.40
2017-09-25T02:30:58.448Z,9.40
2017-09-25T02:33:26.710Z,9.30
2017-09-25T02:35:55.124Z,9.30
2017-09-25T02:38:22.641Z,9.20
2017-09-25T02:40:50.160Z,9.20
2017-09-25T02:43:17.680Z,9.20
2017-09-25T02:45:45.172Z,9.20
2017-09-25T02:48:12.712Z,9.20
2017-09-25T02:50:40.230Z,9.10
2017-09-25T02:53:07.762Z,9.10
2017-09-25T02:55:35.257Z,9.10
2017-09-25T02:58:02.781Z,9.30
2017-09-25T03:00:31.037Z,9.30
2017-09-25T03:02:59.530Z,9.20
2017-09-25T03:05:27.037Z,9.20
2017-09-25T03:07:55.317Z,9.00
2017-09-25T03:10:22.842Z,8.90
2017-09-25T03:12:51.097Z,8.90
2017-09-25T03:15:19.396Z,8.90
2017-09-25T03:17:46.885Z,8.90
2017-09-25T03:20:14.418Z,8.90
2017-09-25T03:22:41.921Z,9.00
2017-09-25T03:25:09.452Z,9.10
2017-09-25T03:27:36.945Z,9.20
2017-09-25T03:30:04.869Z,9.30
2017-09-25T03:32:32.361Z,9.40
2017-09-25T03:34:59.849Z,9.50
2017-09-25T03:37:27.375Z,9.50
2017-09-25T03:39:55.626Z,9.60
2017-09-25T03:42:23.926Z,9.70
2017-09-25T03:44:51.414Z,9.70
2017-09-25T03:47:18.936Z,9.70
2017-09-25T03:49:46.713Z,9.80
2017-09-25T03:52:14.262Z,9.70
2017-09-25T03:54:41.785Z,9.70
2017-09-25T03:57:09.276Z,9.60
2017-09-25T03:59:36.833Z,9.50
2017-09-25T04:02:04.325Z,9.50
2017-09-25T04:04:31.825Z,9.40
2017-09-25T04:06:59.353Z,9.40
2017-09-25T04:09:26.851Z,9.30
2017-09-25T04:11:54.373Z,9.40
2017-09-25T04:14:21.861Z,9.40
2017-09-25T04:16:50.157Z,9.60
2017-09-25T04:19:17.652Z,9.60
2017-09-25T04:21:45.176Z,9.70
2017-09-25T04:24:12.663Z,9.70
2017-09-25T04:26:40.955Z,9.80
2017-09-25T04:29:08.481Z,9.80
2017-09-25T04:31:35.973Z,9.80
2017-09-25T04:34:03.501Z,9.70
2017-09-25T04:36:30.996Z,9.60
2017-09-25T04:38:59.292Z,9.40
2017-09-25T04:41:26.784Z,9.40
2017-09-25T04:43:54.316Z,9.30
2017-09-25T04:46:21.809Z,9.30
2017-09-25T04:48:49.342Z,9.20
2017-09-25T04:51:16.848Z,9.30
2017-09-25T04:53:44.530Z,9.30
2017-09-25T04:56:12.787Z,9.20
2017-09-25T04:58:41.055Z,9.10
2017-09-25T05:01:08.606Z,9.10
2017-09-25T05:03:36.121Z,9.10
2017-09-25T05:06:03.642Z,9.00
2017-09-25T05:08:31.139Z,9.00
2017-09-25T05:10:58.661Z,8.90
2017-09-25T05:13:26.917Z,8.80
2017-09-25T05:15:54.465Z,8.80
2017-09-25T05:18:22.012Z,8.80
2017-09-25T05:20:49.692Z,8.90
2017-09-25T05:23:17.187Z,8.90
2017-09-25T05:25:44.678Z,9.00
2017-09-25T05:28:12.209Z,9.00
2017-09-25T05:30:39.729Z,9.10
2017-09-25T05:33:07.293Z,9.10
2017-09-25T05:35:34.785Z,9.00
2017-09-25T05:38:02.337Z,9.00
2017-09-25T05:40:29.837Z,8.90
2017-09-25T05:42:57.387Z,8.90
2017-09-25T05:45:24.913Z,9.00
2017-09-25T05:47:53.351Z,9.10
2017-09-25T05:50:20.837Z,9.10
2017-09-25T05:52:48.325Z,9.20
2017-09-25T05:55:15.855Z,9.20
2017-09-25T05:57:43.353Z,9.10
2017-09-25T06:00:10.881Z,9.10
2017-09-25T06:02:39.134Z,9.10
2017-09-25T06:05:06.665Z,9.00
2017-09-25T06:07:34.161Z,9.00
2017-09-25T06:10:01.697Z,9.10
2017-09-25T06:12:29.193Z,9.10
2017-09-25T06:14:56.685Z,9.10
2017-09-25T06:17:24.211Z,9.20
2017-09-25T06:19:52.464Z,9.30
2017-09-25T06:22:20.762Z,9.40
2017-09-25T06:24:49.030Z,9.50
2017-09-25T06:27:16.548Z,9.50
2017-09-25T06:29:44.057Z,9.60
2017-09-25T06:32:11.588Z,9.80
2017-09-25T06:34:39.077Z,9.90
2017-09-25T06:37:06.603Z,10.00
2017-09-25T06:39:34.865Z,10.20
2017-09-25T06:42:02.545Z,10.10
2017-09-25T06:44:30.060Z,10.20
2017-09-25T06:46:58.316Z,10.40
2017-09-25T06:49:26.614Z,10.50
2017-09-25T06:51:54.114Z,10.50
2017-09-25T06:54:21.642Z,10.70
2017-09-25T06:56:49.149Z,10.80
2017-09-25T06:59:16.676Z,11.00
2017-09-25T07:01:44.175Z,11.10
2017-09-25T07:04:12.082Z,11.30
2017-09-25T07:06:39.620Z,11.40
2017-09-25T07:09:07.120Z,11.60
2017-09-25T07:11:34.653Z,11.80
2017-09-25T07:14:02.146Z,12.00
2017-09-25T07:16:29.681Z,12.10
2017-09-25T07:18:57.967Z,12.50
2017-09-25T07:21:25.511Z,12.50
2017-09-25T07:23:53.005Z,12.70
2017-09-25T07:26:20.529Z,13.00
2017-09-25T07:28:48.021Z,13.10
2017-09-25T07:31:15.933Z,13.10
2017-09-25T07:33:43.447Z,13.20
2017-09-25T07:36:10.949Z,13.30
2017-09-25T07:38:39.243Z,14.90
2017-09-25T07:41:06.747Z,14.90
2017-09-25T07:43:34.293Z,17.40
2017-09-25T07:46:01.786Z,20.20
2017-09-25T07:48:29.308Z,22.20
2017-09-25T07:50:56.801Z,22.80
2017-09-25T07:53:24.332Z,22.20
2017-09-25T07:55:51.862Z,21.30
2017-09-25T07:58:19.542Z,20.40
2017-09-25T08:00:47.032Z,19.90
2017-09-25T08:03:25.638Z,19.60
2017-09-25T08:05:53.129Z,18.90
2017-09-25T08:08:20.632Z,18.60
2017-09-25T08:10:48.177Z,18.20
2017-09-25T08:13:15.676Z,18.10
2017-09-25T08:15:43.973Z,18.30
2017-09-25T08:18:11.465Z,18.30
2017-09-25T08:20:39.145Z,18.50
2017-09-25T08:23:07.417Z,18.40
2017-09-25T08:25:34.908Z,18.40
2017-09-25T08:28:02.437Z,18.50
2017-09-25T08:30:29.937Z,18.60
2017-09-25T08:32:58.249Z,18.70
2017-09-25T08:35:25.745Z,18.70
2017-09-25T08:37:54.045Z,19.00
2017-09-25T08:40:22.308Z,18.80
2017-09-25T08:42:49.837Z,18.80
2017-09-25T08:45:17.334Z,18.90
2017-09-25T08:47:44.856Z,19.10
2017-09-25T08:50:12.345Z,19.70
2017-09-25T08:52:40.276Z,20.00
2017-09-25T08:55:08.561Z,20.10
2017-09-25T08:57:36.071Z,20.00
2017-09-25T09:00:03.593Z,20.00
2017-09-25T09:02:31.093Z,21.20
2017-09-25T09:04:58.625Z,23.20
2017-09-25T09:07:26.881Z,24.40
2017-09-25T09:09:55.170Z,24.10
2017-09-25T09:12:22.669Z,24.10
2017-09-25T09:14:50.202Z,23.20
2017-09-25T09:17:17.697Z,24.40
2017-09-25T09:19:45.193Z,24.70
2017-09-25T09:22:12.719Z,24.90
2017-09-25T09:24:40.241Z,24.90
2017-09-25T09:27:07.774Z,25.90
2017-09-25T09:29:35.261Z,26.30
2017-09-25T09:32:02.793Z,27.10
2017-09-25T09:34:30.294Z,27.20
2017-09-25T09:36:58.586Z,28.00
2017-09-25T09:39:26.092Z,28.00
2017-09-25T09:41:54.383Z,29.10
2017-09-25T09:44:21.940Z,29.00
2017-09-25T09:46:49.785Z,29.40
2017-09-25T09:49:17.285Z,29.70
2017-09-25T09:51:45.541Z,28.50
2017-09-25T09:54:13.838Z,27.90
2017-09-25T09:56:41.329Z,27.90
2017-09-25T09:59:08.867Z,26.70
2017-09-25T10:01:36.362Z,27.00
2017-09-25T10:04:03.917Z,27.50
2017-09-25T10:06:31.420Z,27.40
2017-09-25T10:08:58.953Z,26.70
2017-09-25T10:11:26.453Z,26.70
2017-09-25T10:13:54.199Z,27.10
2017-09-25T10:16:21.692Z,27.90
2017-09-25T10:18:49.179Z,28.40
2017-09-25T10:21:16.707Z,28.90
2017-09-25T10:23:44.216Z,29.10
2017-09-25T10:26:11.737Z,29.00
2017-09-25T10:28:39.233Z,28.20
2017-09-25T10:31:07.541Z,28.10
2017-09-25T10:33:35.037Z,28.00
2017-09-25T10:36:03.323Z,27.80
2017-09-25T10:38:30.822Z,27.80
2017-09-25T10:40:58.728Z,27.80
2017-09-25T10:43:26.213Z,27.70
2017-09-25T10:45:53.696Z,27.90
2017-09-25T10:48:21.217Z,27.90
2017-09-25T10:50:49.489Z,27.70
2017-09-25T10:53:17.792Z,27.30
2017-09-25T10:55:45.281Z,27.30
2017-09-25T10:58:13.849Z,25.00
2017-09-25T11:00:41.377Z,25.00
2017-09-25T11:03:08.869Z,23.80
2017-09-25T11:05:36.406Z,22.80
2017-09-25T11:08:03.912Z,22.40
2017-09-25T11:10:31.437Z,21.80
2017-09-25T11:12:58.925Z,21.60
2017-09-25T11:15:27.210Z,21.20
2017-09-25T11:17:54.723Z,21.10
2017-09-25T11:20:23.161Z,20.40
2017-09-25T11:22:50.665Z,20.40
2017-09-25T11:25:18.149Z,20.30
2017-09-25T11:27:45.674Z,20.20
2017-09-25T11:30:13.167Z,20.20
2017-09-25T11:32:41.557Z,20.60
2017-09-25T11:35:09.044Z,20.60
2017-09-25T11:37:36.537Z,20.60
2017-09-25T11:40:04.069Z,20.60
2017-09-25T11:42:31.565Z,20.80
2017-09-25T11:44:59.087Z,20.80
2017-09-25T11:47:26.577Z,20.50
2017-09-25T11:49:54.109Z,20.50
2017-09-25T11:52:21.626Z,20.50
2017-09-25T11:54:49.144Z,20.70
2017-09-25T11:57:16.635Z,21.00
2017-09-25T11:59:44.462Z,21.30
2017-09-25T12:02:12.753Z,21.40
2017-09-25T12:04:40.228Z,21.40
2017-09-25T12:07:08.513Z,21.50
2017-09-25T12:09:36.005Z,21.50
2017-09-25T12:12:03.533Z,21.60
2017-09-25T12:14:31.017Z,21.90
2017-09-25T12:16:58.536Z,22.00
2017-09-25T12:19:26.025Z,22.30
2017-09-25T12:21:53.597Z,22.60
2017-09-25T12:24:21.093Z,22.50
2017-09-25T12:26:48.738Z,22.50
2017-09-25T12:31:50.301Z,22.50
2017-09-25T12:34:17.793Z,22.50
2017-09-25T12:36:45.294Z,22.70
2017-09-25T12:39:12.825Z,22.70
2017-09-25T12:41:40.313Z,22.50
2017-09-25T12:44:09.201Z,22.60
2017-09-25T12:46:38.915Z,22.60
2017-09-25T12:49:09.609Z,22.50
2017-09-25T12:51:37.100Z,22.70
2017-09-25T12:54:04.598Z,22.80
2017-09-25T12:56:33.089Z,22.90
2017-09-25T12:59:00.577Z,23.00
2017-09-25T13:01:28.106Z,23.00
2017-09-25T13:03:55.601Z,22.80
2017-09-25T13:06:23.239Z,22.50
2017-09-25T13:08:50.729Z,22.20
2017-09-25T13:11:18.229Z,21.80
2017-09-25T13:13:45.761Z,21.70
2017-09-25T13:16:13.275Z,21.50
2017-09-25T13:18:40.826Z,21.30
2017-09-25T13:21:08.353Z,21.00
2017-09-25T13:23:35.873Z,21.00
2017-09-25T13:26:04.134Z,20.90
2017-09-25T13:28:32.526Z,20.90
2017-09-25T13:31:00.786Z,20.70
2017-09-25T13:33:28.282Z,20.70
2017-09-25T13:35:55.804Z,20.70
2017-09-25T13:38:23.289Z,20.70
2017-09-25T13:40:51.581Z,20.70
2017-09-25T13:43:19.069Z,20.70
2017-09-25T13:45:46.973Z,20.70
2017-09-25T13:48:14.457Z,20.70
2017-09-25T13:50:41.949Z,20.60
2017-09-25T13:53:09.469Z,20.50
2017-09-25T13:55:37.733Z,20.50
2017-09-25T13:58:06.020Z,20.50
2017-09-25T14:03:07.157Z,20.40
2017-09-25T14:05:34.652Z,20.30
2017-09-25T14:08:02.184Z,20.40
2017-09-25T14:10:29.672Z,20.40
2017-09-25T14:12:57.263Z,20.40
2017-09-25T14:15:24.753Z,20.40
2017-09-25T14:17:53.049Z,20.20
2017-09-25T14:20:20.550Z,20.20
2017-09-25T14:22:48.944Z,20.20
2017-09-25T14:25:17.382Z,20.10
2017-09-25T14:27:44.876Z,20.10
2017-09-25T14:30:12.405Z,20.00
2017-09-25T14:32:39.892Z,20.00
2017-09-25T14:35:07.410Z,20.00
2017-09-25T14:37:34.898Z,20.00
2017-09-25T14:40:02.529Z,20.00
2017-09-25T14:42:30.021Z,20.10
2017-09-25T14:44:57.519Z,20.00
2017-09-25T14:47:25.044Z,20.00
2017-09-25T14:49:52.534Z,20.00
2017-09-25T14:52:20.065Z,20.00
2017-09-25T14:54:48.321Z,20.00
2017-09-25T14:57:16.613Z,19.90
2017-09-25T14:59:44.105Z,19.90
2017-09-25T15:02:12.831Z,19.90
2017-09-25T15:04:40.334Z,19.90
2017-09-25T15:07:07.829Z,19.90
2017-09-25T15:09:35.361Z,19.90
2017-09-25T15:12:02.852Z,19.90
2017-09-25T15:14:30.513Z,19.80
2017-09-25T15:16:58.782Z,19.70
2017-09-25T15:19:27.378Z,19.60
2017-09-25T15:21:54.877Z,19.60
2017-09-25T15:24:22.376Z,19.70
2017-09-25T15:26:49.915Z,19.60
2017-09-25T15:29:17.402Z,19.50
2017-09-25T15:31:44.921Z,19.50
2017-09-25T15:34:12.410Z,19.50
2017-09-25T15:36:40.717Z,19.50
2017-09-25T15:39:08.225Z,19.50
2017-09-25T15:41:36.510Z,19.40
2017-09-25T15:44:03.993Z,19.40
2017-09-25T15:46:31.621Z,19.40
2017-09-25T15:48:59.109Z,19.30
2017-09-25T15:51:27.361Z,19.20
2017-09-25T15:53:54.932Z,19.20
2017-09-25T15:56:22.439Z,19.20
2017-09-25T15:58:49.998Z,19.20
2017-09-25T16:01:18.265Z,19.20
2017-09-25T16:03:46.558Z,19.20
2017-09-25T16:06:14.062Z,19.20
2017-09-25T16:08:41.585Z,19.10
2017-09-25T16:11:09.074Z,19.00
2017-09-25T16:13:36.717Z,19.00
2017-09-25T16:16:04.210Z,19.00
2017-09-25T16:18:31.704Z,19.00
2017-09-25T16:20:59.224Z,18.90
2017-09-25T16:23:26.735Z,18.80
2017-09-25T16:25:54.261Z,18.70
2017-09-25T16:28:21.758Z,18.70
2017-09-25T16:30:49.277Z,18.60
2017-09-25T16:33:16.829Z,18.40
2017-09-25T16:35:44.359Z,18.40
2017-09-25T16:38:11.862Z,18.30
2017-09-25T16:40:39.509Z,18.30
2017-09-25T16:43:07.004Z,18.20
2017-09-25T16:45:34.492Z,18.10
2017-09-25T16:48:02.025Z,18.10
2017-09-25T16:50:30.538Z,18.10
2017-09-25T16:52:58.057Z,18.00
2017-09-25T16:55:25.546Z,18.00
2017-09-25T16:57:53.082Z,17.90
2017-09-25T17:00:20.573Z,17.90
2017-09-25T17:02:48.193Z,17.80
2017-09-25T17:05:15.707Z,17.70
2017-09-25T17:07:43.237Z,17.70
2017-09-25T17:10:10.778Z,17.60
2017-09-25T17:12:38.292Z,17.60
2017-09-25T17:15:05.869Z,17.60
2017-09-25T17:17:33.364Z,17.50
2017-09-25T17:20:01.677Z,17.30
2017-09-25T17:22:29.205Z,17.30
2017-09-25T17:24:56.775Z,17.10
2017-09-25T17:27:24.281Z,17.10
2017-09-25T17:29:52.120Z,17.00
2017-09-25T17:32:19.618Z,17.00
2017-09-25T17:34:47.791Z,16.90
2017-09-25T17:37:15.331Z,16.90
2017-09-25T17:39:42.911Z,16.80
2017-09-25T17:42:11.206Z,16.70
2017-09-25T17:44:38.717Z,16.70
2017-09-25T17:47:07.197Z,16.50
2017-09-25T17:49:34.696Z,16.50
2017-09-25T17:52:02.190Z,16.50
2017-09-25T17:54:29.713Z,16.40
2017-09-25T17:56:57.975Z,16.20
2017-09-25T17:59:26.269Z,16.20
2017-09-25T18:01:53.764Z,16.10
2017-09-25T18:04:21.305Z,16.10
2017-09-25T18:06:48.828Z,16.10
2017-09-25T18:09:16.633Z,16.00
2017-09-25T18:11:44.145Z,16.00
2017-09-25T18:14:11.642Z,15.90
2017-09-25T18:16:39.177Z,15.90
2017-09-25T18:19:06.673Z,15.90
2017-09-25T18:21:34.235Z,15.80
2017-09-25T18:24:02.505Z,15.70
2017-09-25T18:26:30.035Z,15.70
2017-09-25T18:28:57.557Z,15.60
2017-09-25T18:31:25.261Z,15.60
2017-09-25T18:33:52.752Z,15.60
2017-09-25T18:36:20.249Z,15.50
2017-09-25T18:38:47.782Z,15.40
2017-09-25T18:41:15.297Z,15.30
2017-09-25T18:43:43.587Z,15.10
2017-09-25T18:46:11.081Z,15.10
2017-09-25T18:48:38.785Z,15.00
2017-09-25T18:51:06.274Z,14.90
2017-09-25T18:53:38.493Z,14.90
2017-09-25T18:56:06.021Z,14.70
2017-09-25T18:58:33.519Z,14.60
2017-09-25T19:01:01.085Z,14.50
2017-09-25T19:03:29.350Z,14.30
2017-09-25T19:05:57.653Z,14.10
2017-09-25T19:08:25.156Z,14.10
2017-09-25T19:10:53.453Z,13.80
2017-09-25T19:13:20.981Z,13.80
2017-09-25T19:15:48.624Z,13.70
2017-09-25T19:18:16.117Z,13.60
2017-09-25T19:20:43.618Z,13.50
2017-09-25T19:23:11.145Z,13.50
2017-09-25T19:25:38.654Z,13.50
2017-09-25T19:28:06.233Z,13.50
2017-09-25T19:30:34.522Z,13.40
2017-09-25T19:33:02.061Z,13.40
2017-09-25T19:35:29.553Z,13.30
2017-09-25T19:37:57.085Z,13.20
2017-09-25T19:40:24.698Z,13.10
2017-09-25T19:42:53.451Z,13.10
2017-09-25T19:45:20.975Z,13.00
2017-09-25T19:47:59.921Z,13.00
2017-09-25T19:50:39.112Z,12.90
2017-09-25T19:53:07.465Z,12.80
2017-09-25T19:55:35.741Z,12.80
2017-09-25T19:58:08.717Z,12.80
2017-09-25T20:00:37.136Z,12.80
2017-09-25T20:03:05.318Z,12.80
2017-09-25T20:05:33.587Z,12.80
2017-09-25T20:08:01.846Z,12.80
2017-09-25T20:10:32.661Z,12.80
2017-09-25T20:13:00.929Z,12.90
2017-09-25T20:15:48.145Z,12.90
2017-09-25T20:18:15.677Z,12.90
2017-09-25T20:20:44.029Z,12.90
2017-09-25T20:23:11.549Z,12.90
2017-09-25T20:25:39.114Z,13.00
2017-09-25T20:28:06.643Z,13.00
2017-09-25T20:30:34.173Z,12.90
2017-09-25T20:33:01.693Z,12.90
2017-09-25T20:35:29.342Z,12.90
2017-09-25T20:37:56.848Z,12.90
2017-09-25T20:40:25.723Z,13.00
2017-09-25T20:43:00.017Z,13.10
2017-09-25T20:45:27.519Z,13.00
2017-09-25T20:47:55.108Z,13.10
2017-09-25T20:50:22.597Z,13.00
2017-09-25T20:52:50.181Z,13.00
2017-09-25T20:55:17.677Z,13.00
2017-09-25T20:57:45.238Z,13.00
2017-09-25T21:00:12.740Z,13.00
2017-09-25T21:02:40.285Z,13.10
2017-09-25T21:05:08.578Z,13.10
2017-09-25T21:07:36.101Z,13.10
2017-09-25T21:10:04.374Z,13.10
2017-09-25T21:12:32.013Z,13.00
2017-09-25T21:14:59.519Z,13.10
2017-09-25T21:17:27.014Z,13.10
2017-09-25T21:19:54.554Z,13.10
2017-09-25T21:22:22.053Z,13.10
2017-09-25T21:24:49.597Z,13.10
2017-09-25T21:27:19.768Z,13.10
2017-09-25T21:29:47.297Z,13.10
2017-09-25T21:32:14.805Z,13.00
2017-09-25T21:34:43.106Z,12.80
2017-09-25T21:37:10.604Z,12.80
2017-09-25T21:39:38.254Z,12.80
2017-09-25T21:42:06.520Z,12.50
2017-09-25T21:44:34.957Z,12.50
2017-09-25T21:47:02.488Z,12.50
2017-09-25T21:49:29.989Z,12.50
2017-09-25T21:51:57.629Z,12.50
2017-09-25T21:54:25.893Z,12.40
2017-09-25T21:56:54.294Z,12.40
2017-09-25T21:59:21.791Z,12.40
2017-09-25T22:01:50.089Z,12.20
2017-09-25T22:04:17.632Z,12.20
2017-09-25T22:06:46.103Z,12.20
2017-09-25T22:09:13.600Z,12.10
2017-09-25T22:11:41.876Z,12.10
2017-09-25T22:14:09.422Z,12.00
2017-09-25T22:16:37.712Z,12.00
2017-09-25T22:19:05.242Z,12.00
2017-09-25T22:21:32.752Z,12.10
2017-09-25T22:24:01.057Z,12.20
2017-09-25T22:26:28.557Z,12.20
2017-09-25T22:28:56.108Z,12.20
2017-09-25T22:31:23.611Z,12.30
2017-09-25T22:33:51.545Z,12.30
2017-09-25T22:36:19.037Z,12.40
2017-09-25T22:38:46.546Z,12.40
2017-09-25T22:41:14.157Z,12.50
2017-09-25T22:43:56.551Z,12.50
2017-09-25T22:46:24.096Z,12.60
2017-09-25T22:48:51.598Z,12.70
2017-09-25T22:51:19.132Z,12.80
2017-09-25T22:53:46.622Z,12.80
2017-09-25T22:56:14.145Z,12.70
2017-09-25T22:58:42.405Z,12.70
2017-09-25T23:01:09.957Z,12.60
2017-09-25T23:03:38.249Z,12.60
2017-09-25T23:06:05.781Z,12.60
2017-09-25T23:08:33.274Z,12.60
2017-09-25T23:11:04.543Z,12.60
2017-09-25T23:13:32.805Z,12.60
2017-09-25T23:16:01.065Z,12.50
2017-09-25T23:18:29.406Z,12.50
2017-09-25T23:20:56.896Z,12.40
2017-09-25T23:23:24.434Z,12.40
2017-09-25T23:25:51.932Z,12.40
2017-09-25T23:28:19.461Z,12.30
2017-09-25T23:30:53.561Z,12.30
2017-09-25T23:33:21.099Z,12.20
2017-09-25T23:35:48.588Z,12.20
2017-09-25T23:38:17.161Z,12.20
2017-09-25T23:40:45.475Z,12.20
2017-09-25T23:43:12.966Z,12.20
2017-09-25T23:45:41.256Z,12.20
2017-09-25T23:48:08.744Z,12.20
2017-09-25T23:50:36.277Z,12.30
2017-09-25T23:53:04.102Z,12.30
2017-09-25T23:55:31.644Z,12.40
2017-09-25T23:57:59.137Z,12.40
